EST,Max TemperatureF,Mean TemperatureF,Min TemperatureF,Max Dew PointF,MeanDew PointF,Min DewpointF,Max Humidity, Mean Humidity, Min Humidity, Max Sea Level PressureIn, Mean Sea Level PressureIn, Min Sea Level PressureIn, Max VisibilityMiles, Mean VisibilityMiles, Min VisibilityMiles, Max Wind SpeedMPH, Mean Wind SpeedMPH, Max Gust SpeedMPH,PrecipitationIn, CloudCover, Events, WindDirDegrees
2013-11-1,71,63,55,57,53,45,94,71,56,29.76,29.51,29.37,10,10,7,30,11,38,0.05,5,,215
2013-11-2,64,48,33,45,39,28,93,66,37,29.72,29.64,29.58,10,10,9,12,4,16,0.01,2,,254
2013-11-3,48,39,30,45,23,12,87,54,27,30.40,30.08,29.73,10,10,10,20,11,24,0.01,4,,4
2013-11-4,41,30,17,19,13,10,100,54,29,30.69,30.60,30.42,10,10,10,16,6,22,0.00,0,,349
2013-11-5,48,32,17,28,21,9,93,68,40,30.70,30.62,30.49,10,10,9,9,2,,0.00,0,,205
2013-11-6,57,44,32,43,36,27,87,69,51,30.48,30.27,29.98,10,10,10,14,5,21,0.00,0,,192
2013-11-7,60,46,33,54,43,25,88,73,57,29.98,29.77,29.65,10,10,9,14,8,20,0.01,4,,249
2013-11-8,46,35,24,25,20,18,80,48,34,30.01,29.87,29.78,10,10,10,18,10,30,0.00,3,,278
2013-11-9,42,35,28,28,19,16,75,51,36,30.14,30.08,30.01,10,10,9,20,10,26,0.00,3,,262
2013-11-10,44,38,32,37,33,27,100,79,61,30.02,29.81,29.71,10,9,3,14,3,26,0.06,5,,260
2013-11-11,48,42,35,30,25,21,70,53,37,30.04,29.93,29.78,10,10,10,22,12,30,0.00,2,,258
2013-11-12,42,34,26,28,16,9,61,50,41,30.12,30.00,29.83,10,10,10,17,10,26,0.00,3,,282
2013-11-13,33,22,12,16,9,3,86,48,32,30.24,30.17,30.09,10,10,10,17,8,26,0.00,0,,269
2013-11-14,48,36,23,25,18,7,86,54,34,30.08,30.03,29.98,10,10,10,18,9,26,0.00,0,,243
2013-11-15,53,38,23,23,18,14,80,53,24,30.16,30.11,30.07,10,10,10,10,5,,0.00,0,,224
2013-11-16,55,39,23,28,22,16,93,62,23,30.32,30.26,30.15,10,10,8,6,1,,0.00,2,,283
2013-11-17,51,36,21,50,37,12,100,88,68,30.33,30.20,29.88,10,4,0,8,2,,0.09,7,,40
2013-11-18,62,53,44,55,43,28,94,67,39,29.86,29.58,29.49,10,8,0,22,8,30,0.23,5,,228
2013-11-19,46,37,28,28,16,10,55,44,33,30.22,29.91,29.60,10,10,10,24,14,33,0.00,2,,291
2013-11-20,41,29,17,16,10,5,86,47,23,30.61,30.47,30.23,10,10,10,14,8,23,0.00,0,,318
2013-11-21,46,30,14,23,12,5,93,56,20,30.62,30.51,30.34,10,10,10,10,2,,0.00,0,,235
2013-11-22,39,34,28,36,29,18,93,76,56,30.32,30.08,29.77,10,10,4,9,2,,0.03,7,,237
2013-11-23,42,34,26,37,21,10,93,57,36,29.84,29.76,29.71,10,10,3,22,10,37,0.00,2,,275
2013-11-24,26,22,17,14,1,-4,59,42,33,30.08,29.84,29.71,10,10,10,29,18,44,0.00,0,,293
2013-11-25,28,22,15,9,-1,-6,63,38,23,30.29,30.23,30.08,10,10,10,24,12,34,0.00,1,,260
2013-11-26,35,30,26,30,20,7,93,67,40,30.30,30.24,30.11,10,8,2,10,3,,0.07,7,,225
2013-11-27,59,46,32,57,42,27,94,87,70,30.08,29.45,29.19,10,6,1,23,9,37,1.67,8,,233
2013-11-28,35,27,19,28,11,0,75,49,29,30.38,29.95,29.34,10,10,10,28,16,38,0.03,3,,271
2013-11-29,28,17,6,9,4,0,85,53,31,30.72,30.54,30.39,10,10,10,13,5,16,0.00,1,,276
2013-11-30,30,16,3,19,9,-4,93,69,43,30.79,30.66,30.41,10,10,10,7,2,,0.00,2,,151